createdAt,value
2022-09-18T00:01:17.924Z,73.50
2022-09-18T00:03:46.595Z,73.70
2022-09-18T00:06:15.355Z,74.00
2022-09-18T00:08:43.936Z,73.80
2022-09-18T00:11:12.747Z,73.80
2022-09-18T00:13:40.435Z,73.90
2022-09-18T00:16:09.075Z,73.60
2022-09-18T00:18:36.644Z,73.60
2022-09-18T00:21:04.915Z,73.30
2022-09-18T00:23:32.234Z,73.20
2022-09-18T00:25:59.444Z,73.10
2022-09-18T00:28:26.795Z,74.20
2022-09-18T00:30:54.137Z,74.30
2022-09-18T00:33:21.474Z,74.00
2022-09-18T00:35:49.112Z,73.80
2022-09-18T00:38:16.394Z,73.60
2022-09-18T00:40:43.693Z,73.90
2022-09-18T00:43:21.706Z,74.30
2022-09-18T00:45:57.760Z,74.50
2022-09-18T00:48:28.164Z,74.60
2022-09-18T00:50:55.455Z,75.00
2022-09-18T00:53:23.200Z,75.20
2022-09-18T00:55:50.434Z,75.40
2022-09-18T00:58:17.725Z,75.50
2022-09-18T01:00:45.017Z,75.50
2022-09-18T01:03:12.846Z,75.60
2022-09-18T01:05:58.459Z,75.80
2022-09-18T01:08:44.446Z,75.60
2022-09-18T01:11:11.687Z,75.80
2022-09-18T01:13:38.854Z,75.80
2022-09-18T01:16:13.998Z,76.00
2022-09-18T01:18:41.464Z,76.00
2022-09-18T01:21:20.370Z,76.20
2022-09-18T01:24:02.759Z,76.40
2022-09-18T01:26:39.710Z,76.50
2022-09-18T01:29:24.125Z,76.40
2022-09-18T01:32:16.126Z,76.30
2022-09-18T01:34:46.625Z,76.50
2022-09-18T01:37:13.904Z,76.50
2022-09-18T01:39:46.747Z,76.80
2022-09-18T01:42:15.225Z,77.10
2022-09-18T01:44:44.476Z,77.40
2022-09-18T01:47:14.145Z,77.40
2022-09-18T01:49:44.284Z,78.50
2022-09-18T01:52:21.135Z,77.80
2022-09-18T01:54:49.884Z,77.90
2022-09-18T01:57:17.125Z,78.00
2022-09-18T01:59:49.615Z,78.20
2022-09-18T02:02:33.162Z,78.20
2022-09-18T02:05:02.815Z,78.80
2022-09-18T02:07:30.065Z,77.90
2022-09-18T02:09:58.657Z,78.10
2022-09-18T02:12:29.356Z,78.10
2022-09-18T02:15:03.804Z,78.80
2022-09-18T02:17:40.555Z,78.30
2022-09-18T02:20:16.574Z,78.70
2022-09-18T02:22:45.994Z,78.80
2022-09-18T02:25:15.914Z,79.10
2022-09-18T02:27:44.646Z,79.30
2022-09-18T02:30:12.256Z,79.40
2022-09-18T02:32:40.235Z,79.60
2022-09-18T02:35:09.005Z,80.00
2022-09-18T02:37:55.406Z,80.40
2022-09-18T02:40:34.907Z,80.40
2022-09-18T02:43:09.645Z,80.60
2022-09-18T02:45:43.195Z,80.80
2022-09-18T02:48:28.865Z,81.00
2022-09-18T02:50:56.274Z,80.90
2022-09-18T02:53:46.555Z,81.10
2022-09-18T02:56:23.355Z,81.40
2022-09-18T02:58:55.945Z,81.90
2022-09-18T03:01:25.731Z,82.30
2022-09-18T03:03:53.173Z,82.50
2022-09-18T03:06:29.634Z,82.70
2022-09-18T03:08:56.896Z,82.70
2022-09-18T03:11:24.065Z,82.80
2022-09-18T03:13:51.444Z,82.90
2022-09-18T03:16:18.665Z,83.00
2022-09-18T03:18:45.925Z,83.00
2022-09-18T03:21:13.215Z,83.20
2022-09-18T03:23:45.340Z,83.60
2022-09-18T03:26:20.715Z,84.10
2022-09-18T03:28:48.525Z,84.80
2022-09-18T03:31:17.234Z,85.00
2022-09-18T03:33:45.585Z,85.30
2022-09-18T03:36:13.635Z,85.50
2022-09-18T03:38:41.996Z,85.50
2022-09-18T03:41:09.725Z,85.70
2022-09-18T03:43:40.704Z,85.90
2022-09-18T03:46:10.707Z,86.30
2022-09-18T03:48:38.245Z,86.70
2022-09-18T03:51:05.905Z,86.80
2022-09-18T03:53:33.665Z,86.80
2022-09-18T03:56:26.676Z,87.30
2022-09-18T03:59:08.236Z,87.50
2022-09-18T04:01:55.598Z,87.50
2022-09-18T04:04:29.114Z,87.70
2022-09-18T04:06:59.114Z,87.80
2022-09-18T04:09:46.111Z,87.90
2022-09-18T04:12:13.201Z,88.10
2022-09-18T04:14:43.260Z,88.40
2022-09-18T04:17:11.241Z,88.60
2022-09-18T04:19:38.534Z,88.80
2022-09-18T04:22:09.240Z,89.00
2022-09-18T04:24:39.763Z,89.20
2022-09-18T04:27:08.030Z,89.60
2022-09-18T04:29:35.164Z,89.80
2022-09-18T04:32:02.663Z,89.60
2022-09-18T04:34:29.675Z,89.80
2022-09-18T04:36:56.691Z,90.00
2022-09-18T04:39:28.631Z,90.30
2022-09-18T04:42:00.161Z,90.60
2022-09-18T04:44:27.361Z,90.60
2022-09-18T04:46:54.454Z,90.80
2022-09-18T04:49:21.712Z,90.90
2022-09-18T04:51:49.141Z,91.00
2022-09-18T04:54:16.311Z,91.20
2022-09-18T04:56:44.681Z,91.40
2022-09-18T04:59:12.312Z,91.40
2022-09-18T05:01:43.805Z,91.40
2022-09-18T05:04:13.191Z,91.50
2022-09-18T05:06:58.291Z,91.70
2022-09-18T05:09:25.323Z,91.90
2022-09-18T05:11:54.703Z,92.10
2022-09-18T05:14:23.923Z,92.20
2022-09-18T05:16:56.483Z,92.20
2022-09-18T05:19:34.460Z,92.20
2022-09-18T05:22:06.611Z,92.30
2022-09-18T05:24:38.201Z,92.40
2022-09-18T05:27:06.270Z,92.90
2022-09-18T05:29:33.272Z,92.60
2022-09-18T05:32:09.496Z,92.70
2022-09-18T05:34:37.811Z,92.80
2022-09-18T05:37:06.892Z,92.80
2022-09-18T05:39:34.040Z,93.00
2022-09-18T05:42:02.301Z,93.00
2022-09-18T05:44:29.480Z,93.10
2022-09-18T05:46:57.342Z,93.20
2022-09-18T05:49:24.522Z,93.50
2022-09-18T05:51:52.131Z,93.40
2022-09-18T05:54:21.042Z,93.50
2022-09-18T05:56:49.348Z,93.60
2022-09-18T05:59:16.781Z,93.80
2022-09-18T06:01:47.712Z,94.10
2022-09-18T06:04:43.581Z,94.20
2022-09-18T06:07:13.182Z,94.40
2022-09-18T06:09:40.273Z,94.40
2022-09-18T06:12:07.361Z,94.70
2022-09-18T06:14:36.612Z,95.20
2022-09-18T06:17:04.011Z,95.00
2022-09-18T06:19:34.861Z,95.10
2022-09-18T06:22:02.084Z,95.20
2022-09-18T06:24:29.051Z,95.40
2022-09-18T06:27:07.412Z,95.50
2022-09-18T06:29:35.082Z,95.80
2022-09-18T06:32:10.312Z,95.90
2022-09-18T06:34:39.272Z,96.00
2022-09-18T06:37:11.410Z,96.20
2022-09-18T06:39:58.665Z,95.90
2022-09-18T06:42:40.693Z,95.90
2022-09-18T06:45:33.601Z,96.00
2022-09-18T06:48:03.610Z,96.20
2022-09-18T06:50:36.353Z,96.10
2022-09-18T06:53:12.258Z,96.10
2022-09-18T06:55:49.156Z,96.10
2022-09-18T06:58:17.461Z,96.20
2022-09-18T07:00:45.060Z,96.10
2022-09-18T07:03:19.751Z,96.10
2022-09-18T07:06:05.301Z,96.10
2022-09-18T07:08:42.113Z,96.10
2022-09-18T07:11:17.942Z,96.10
2022-09-18T07:13:46.641Z,96.00
2022-09-18T07:16:14.043Z,96.00
2022-09-18T07:18:42.351Z,96.00
2022-09-18T07:21:13.332Z,95.90
2022-09-18T07:23:43.271Z,95.60
2022-09-18T07:26:10.431Z,95.30
2022-09-18T07:28:37.661Z,95.00
2022-09-18T07:31:14.928Z,94.80
2022-09-18T07:33:43.611Z,94.50
2022-09-18T07:36:16.691Z,94.30
2022-09-18T07:38:43.860Z,94.00
2022-09-18T07:41:12.056Z,93.80
2022-09-18T07:43:43.640Z,93.50
2022-09-18T07:46:10.976Z,93.10
2022-09-18T07:48:39.521Z,92.50
2022-09-18T07:51:14.861Z,92.30
2022-09-18T07:53:45.311Z,91.80
2022-09-18T07:56:12.575Z,91.00
2022-09-18T07:58:40.791Z,90.40
2022-09-18T08:01:15.247Z,89.90
2022-09-18T08:03:50.131Z,88.80
2022-09-18T08:06:20.581Z,87.50
2022-09-18T08:09:06.624Z,85.80
2022-09-18T08:11:52.422Z,84.70
2022-09-18T08:14:37.923Z,83.20
2022-09-18T08:17:26.193Z,81.50
2022-09-18T08:20:09.690Z,80.20
2022-09-18T08:22:51.061Z,79.00
2022-09-18T08:25:22.230Z,77.60
2022-09-18T08:27:50.490Z,76.00
2022-09-18T08:30:27.582Z,75.70
2022-09-18T08:33:00.440Z,74.30
2022-09-18T08:35:28.590Z,73.30
2022-09-18T08:37:59.971Z,72.10
2022-09-18T08:41:05.141Z,71.40
2022-09-18T08:43:44.540Z,70.00
2022-09-18T08:46:16.870Z,69.10
2022-09-18T08:48:50.758Z,67.70
2022-09-18T08:51:30.865Z,66.80
2022-09-18T08:54:04.240Z,65.70
2022-09-18T08:56:57.561Z,64.60
2022-09-18T08:59:35.081Z,63.50
2022-09-18T09:02:24.302Z,62.30
2022-09-18T09:04:56.180Z,62.50
2022-09-18T09:07:39.781Z,60.80
2022-09-18T09:10:16.032Z,60.70
2022-09-18T09:12:45.121Z,59.50
2022-09-18T09:15:19.450Z,58.90
2022-09-18T09:17:53.664Z,58.30
2022-09-18T09:20:24.077Z,57.50
2022-09-18T09:23:14.831Z,56.80
2022-09-18T09:26:01.142Z,55.60
2022-09-18T09:28:59.913Z,55.40
2022-09-18T09:31:51.535Z,55.10
2022-09-18T09:34:51.441Z,53.90
2022-09-18T09:37:38.881Z,53.70
2022-09-18T09:40:32.617Z,53.40
2022-09-18T09:43:03.863Z,52.90
2022-09-18T09:45:44.292Z,52.70
2022-09-18T09:48:30.491Z,52.30
2022-09-18T09:51:16.392Z,52.10
2022-09-18T09:53:44.353Z,50.80
2022-09-18T09:56:23.242Z,51.10
2022-09-18T09:58:59.804Z,50.70
2022-09-18T10:01:30.271Z,49.80
2022-09-18T10:04:06.951Z,49.80
2022-09-18T10:06:39.390Z,49.40
2022-09-18T10:09:15.494Z,49.10
2022-09-18T10:11:46.941Z,49.00
2022-09-18T10:14:17.510Z,48.40
2022-09-18T10:16:48.871Z,47.80
2022-09-18T10:19:21.160Z,47.60
2022-09-18T10:21:51.321Z,47.40
2022-09-18T10:24:40.052Z,47.20
2022-09-18T10:27:11.590Z,47.40
2022-09-18T10:29:40.149Z,46.70
2022-09-18T10:32:12.880Z,46.50
2022-09-18T10:34:48.805Z,45.70
2022-09-18T10:37:38.861Z,46.20
2022-09-18T10:40:43.713Z,45.20
2022-09-18T10:43:17.883Z,45.00
2022-09-18T10:45:52.841Z,44.20
2022-09-18T10:48:43.631Z,43.80
2022-09-18T10:51:16.092Z,44.30
2022-09-18T10:53:46.071Z,43.10
2022-09-18T10:56:24.061Z,43.60
2022-09-18T10:58:54.540Z,43.80
2022-09-18T11:01:24.633Z,43.90
2022-09-18T11:04:06.742Z,43.70
2022-09-18T11:06:37.183Z,42.80
2022-09-18T11:09:17.992Z,42.20
2022-09-18T11:11:46.491Z,42.80
2022-09-18T11:14:22.552Z,44.00
2022-09-18T11:16:56.931Z,42.80
2022-09-18T11:19:48.301Z,43.20
2022-09-18T11:22:33.521Z,41.00
2022-09-18T11:25:20.440Z,41.50
2022-09-18T11:28:00.108Z,40.90
2022-09-18T11:30:34.663Z,41.90
2022-09-18T11:33:15.110Z,41.60
2022-09-18T11:35:46.381Z,40.90
2022-09-18T11:38:16.801Z,40.60
2022-09-18T11:40:46.179Z,41.10
2022-09-18T11:43:25.856Z,40.20
2022-09-18T11:46:01.601Z,39.50
2022-09-18T11:48:43.371Z,38.60
2022-09-18T11:51:15.161Z,39.10
2022-09-18T11:54:04.599Z,39.20
2022-09-18T11:56:44.931Z,38.50
2022-09-18T11:59:32.451Z,38.40
2022-09-18T12:02:18.920Z,38.60
2022-09-18T12:04:53.203Z,38.90
2022-09-18T12:10:30.672Z,38.90
2022-09-18T12:13:16.480Z,38.40
2022-09-18T12:15:57.157Z,38.20
2022-09-18T12:18:26.196Z,38.60
2022-09-18T12:21:06.634Z,37.20
2022-09-18T12:23:34.302Z,37.00
2022-09-18T12:26:29.850Z,37.50
2022-09-18T12:29:03.377Z,37.70
2022-09-18T12:31:42.837Z,38.30
2022-09-18T12:34:28.524Z,37.80
2022-09-18T12:36:58.521Z,37.70
2022-09-18T12:40:05.042Z,37.50
2022-09-18T12:42:41.108Z,37.90
2022-09-18T12:45:26.678Z,38.10
2022-09-18T12:47:56.394Z,37.80
2022-09-18T12:50:25.862Z,37.30
2022-09-18T12:53:08.685Z,38.20
2022-09-18T12:55:50.877Z,38.20
2022-09-18T12:58:36.419Z,38.30
2022-09-18T13:01:07.893Z,38.50
2022-09-18T13:03:36.663Z,38.00
2022-09-18T13:06:08.939Z,38.60
2022-09-18T13:08:40.018Z,38.20
2022-09-18T13:11:12.445Z,38.80
2022-09-18T13:13:52.213Z,38.80
2022-09-18T13:16:22.927Z,38.50
2022-09-18T13:18:53.492Z,38.50
2022-09-18T13:21:26.019Z,38.20
2022-09-18T13:23:54.217Z,38.10
2022-09-18T13:26:22.936Z,38.40
2022-09-18T13:28:50.934Z,37.90
2022-09-18T13:31:17.949Z,37.90
2022-09-18T13:33:54.060Z,37.90
2022-09-18T13:36:22.689Z,38.10
2022-09-18T13:38:50.950Z,37.60
2022-09-18T13:41:18.446Z,37.40
2022-09-18T13:43:56.035Z,37.80
2022-09-18T13:46:31.601Z,37.30
2022-09-18T13:48:59.847Z,37.60
2022-09-18T13:51:31.475Z,37.90
2022-09-18T13:54:10.996Z,38.00
2022-09-18T13:56:57.016Z,37.30
2022-09-18T13:59:43.356Z,37.80
2022-09-18T14:02:39.813Z,37.60
2022-09-18T14:05:45.246Z,36.70
2022-09-18T14:08:24.422Z,36.70
2022-09-18T14:11:19.541Z,36.50
2022-09-18T14:13:54.701Z,37.00
2022-09-18T14:16:24.141Z,37.30
2022-09-18T14:19:02.079Z,37.20
2022-09-18T14:21:42.099Z,37.40
2022-09-18T14:24:23.307Z,37.10
2022-09-18T14:26:58.080Z,37.20
2022-09-18T14:29:27.237Z,37.10
2022-09-18T14:31:55.786Z,37.00
2022-09-18T14:34:22.848Z,37.10
2022-09-18T14:36:51.586Z,36.80
2022-09-18T14:39:28.108Z,36.40
2022-09-18T14:41:56.279Z,36.60
2022-09-18T14:44:23.721Z,36.80
2022-09-18T14:46:55.822Z,37.10
2022-09-18T14:49:32.854Z,36.90
2022-09-18T14:52:04.370Z,36.90
2022-09-18T14:54:31.836Z,37.40
2022-09-18T14:57:01.055Z,37.60
2022-09-18T14:59:29.348Z,37.40
2022-09-18T15:02:18.074Z,38.00
2022-09-18T15:04:45.525Z,38.20
2022-09-18T15:07:18.047Z,38.40
2022-09-18T15:09:46.607Z,38.30
2022-09-18T15:12:15.448Z,38.30
2022-09-18T15:14:46.981Z,38.30
2022-09-18T15:17:24.820Z,38.60
2022-09-18T15:19:59.390Z,38.60
2022-09-18T15:22:26.895Z,37.90
2022-09-18T15:25:10.416Z,38.20
2022-09-18T15:27:37.611Z,38.20
2022-09-18T15:30:06.066Z,38.10
2022-09-18T15:32:38.913Z,38.30
2022-09-18T15:35:08.858Z,38.50
2022-09-18T15:37:38.437Z,38.70
2022-09-18T15:40:08.111Z,38.60
2022-09-18T15:42:40.418Z,38.40
2022-09-18T15:45:07.490Z,38.90
2022-09-18T15:47:36.847Z,39.10
2022-09-18T15:50:13.071Z,39.60
2022-09-18T15:52:47.414Z,39.60
2022-09-18T15:55:19.629Z,39.50
2022-09-18T15:57:50.719Z,39.30
2022-09-18T16:00:25.028Z,40.00
2022-09-18T16:02:53.559Z,39.80
2022-09-18T16:05:21.398Z,39.80
2022-09-18T16:07:58.399Z,39.80
2022-09-18T16:10:34.568Z,40.00
2022-09-18T16:13:05.566Z,39.90
2022-09-18T16:15:34.307Z,40.00
2022-09-18T16:18:16.857Z,40.30
2022-09-18T16:20:50.980Z,40.10
2022-09-18T16:23:34.546Z,40.20
2022-09-18T16:26:01.655Z,40.00
2022-09-18T16:28:30.397Z,40.10
2022-09-18T16:30:57.594Z,40.20
2022-09-18T16:33:31.671Z,40.60
2022-09-18T16:36:07.971Z,40.80
2022-09-18T16:38:35.614Z,41.00
2022-09-18T16:41:02.645Z,41.60
2022-09-18T16:43:30.010Z,42.10
2022-09-18T16:45:57.066Z,42.00
2022-09-18T16:48:24.515Z,41.80
2022-09-18T16:50:51.536Z,41.70
2022-09-18T16:53:18.715Z,41.60
2022-09-18T16:55:47.985Z,42.00
2022-09-18T16:58:17.818Z,42.10
2022-09-18T17:00:44.894Z,42.20
2022-09-18T17:03:12.067Z,42.10
2022-09-18T17:05:39.247Z,42.30
2022-09-18T17:08:06.535Z,42.50
2022-09-18T17:10:34.244Z,42.70
2022-09-18T17:13:01.855Z,42.90
2022-09-18T17:15:29.435Z,43.00
2022-09-18T17:17:56.554Z,43.10
2022-09-18T17:20:23.648Z,43.20
2022-09-18T17:22:51.573Z,43.50
2022-09-18T17:25:18.765Z,43.60
2022-09-18T17:27:45.924Z,43.90
2022-09-18T17:30:13.055Z,43.90
2022-09-18T17:32:40.234Z,43.90
2022-09-18T17:35:07.464Z,44.20
2022-09-18T17:37:34.797Z,44.20
2022-09-18T17:40:02.142Z,44.50
2022-09-18T17:42:29.315Z,44.80
2022-09-18T17:44:56.846Z,44.90
2022-09-18T17:47:24.145Z,45.00
2022-09-18T17:49:51.264Z,45.10
2022-09-18T17:52:18.784Z,45.40
2022-09-18T17:54:45.986Z,45.60
2022-09-18T17:57:13.197Z,45.80
2022-09-18T17:59:41.644Z,46.00
2022-09-18T18:02:09.433Z,46.40
2022-09-18T18:04:36.896Z,46.60
2022-09-18T18:07:04.944Z,46.90
2022-09-18T18:09:32.344Z,47.10
2022-09-18T18:11:59.719Z,47.30
2022-09-18T18:14:29.273Z,47.70
2022-09-18T18:16:56.417Z,47.90
2022-09-18T18:19:23.544Z,48.20
2022-09-18T18:21:50.676Z,48.40
2022-09-18T18:24:19.116Z,48.50
2022-09-18T18:26:47.325Z,48.90
2022-09-18T18:29:15.614Z,48.90
2022-09-18T18:31:43.406Z,49.40
2022-09-18T18:34:11.704Z,49.50
2022-09-18T18:36:39.813Z,49.70
2022-09-18T18:39:10.035Z,50.00
2022-09-18T18:41:37.354Z,50.20
2022-09-18T18:44:06.253Z,50.30
2022-09-18T18:46:36.117Z,50.50
2022-09-18T18:49:11.464Z,50.80
2022-09-18T18:51:47.485Z,51.10
2022-09-18T18:54:23.594Z,51.20
2022-09-18T18:56:51.747Z,51.40
2022-09-18T18:59:19.444Z,51.40
2022-09-18T19:01:47.705Z,51.90
2022-09-18T19:04:16.265Z,52.00
2022-09-18T19:06:44.163Z,52.00
2022-09-18T19:09:14.336Z,52.10
2022-09-18T19:11:48.307Z,52.20
2022-09-18T19:14:17.164Z,52.10
2022-09-18T19:16:44.653Z,52.30
2022-09-18T19:19:12.373Z,52.40
2022-09-18T19:21:39.773Z,52.50
2022-09-18T19:24:08.003Z,52.70
2022-09-18T19:26:35.605Z,52.70
2022-09-18T19:29:07.792Z,52.80
2022-09-18T19:31:36.167Z,52.90
2022-09-18T19:34:03.729Z,53.00
2022-09-18T19:36:31.552Z,53.10
2022-09-18T19:38:59.802Z,53.20
2022-09-18T19:41:46.764Z,53.30
2022-09-18T19:44:29.203Z,53.30
2022-09-18T19:46:58.577Z,53.50
2022-09-18T19:49:29.032Z,53.70
2022-09-18T19:51:56.113Z,54.50
2022-09-18T19:54:23.712Z,54.20
2022-09-18T19:56:50.823Z,54.30
2022-09-18T19:59:17.952Z,54.50
2022-09-18T20:01:45.099Z,54.60
2022-09-18T20:04:12.114Z,54.70
2022-09-18T20:06:40.643Z,54.70
2022-09-18T20:09:07.835Z,54.90
2022-09-18T20:11:35.463Z,55.10
2022-09-18T20:14:02.493Z,55.20
2022-09-18T20:16:29.852Z,55.50
2022-09-18T20:18:56.993Z,55.70
2022-09-18T20:21:24.275Z,55.80
2022-09-18T20:23:55.834Z,55.90
2022-09-18T20:26:22.945Z,56.30
2022-09-18T20:28:50.015Z,56.50
2022-09-18T20:31:17.668Z,56.70
2022-09-18T20:33:44.736Z,56.70
2022-09-18T20:36:12.065Z,56.90
2022-09-18T20:38:40.236Z,57.20
2022-09-18T20:41:09.274Z,57.20
2022-09-18T20:43:38.804Z,57.40
2022-09-18T20:46:07.425Z,57.30
2022-09-18T20:48:39.385Z,57.40
2022-09-18T20:51:09.307Z,57.50
2022-09-18T20:53:38.415Z,58.40
2022-09-18T20:56:09.715Z,57.70
2022-09-18T20:58:39.285Z,58.00
2022-09-18T21:01:13.471Z,58.10
2022-09-18T21:03:42.735Z,58.20
2022-09-18T21:06:21.920Z,58.30
2022-09-18T21:08:50.355Z,58.60
2022-09-18T21:11:18.996Z,58.60
2022-09-18T21:13:49.246Z,58.90
2022-09-18T21:16:20.694Z,58.80
2022-09-18T21:18:48.817Z,58.90
2022-09-18T21:21:16.807Z,59.10
2022-09-18T21:24:02.418Z,59.20
2022-09-18T21:26:40.304Z,59.10
2022-09-18T21:29:13.705Z,59.30
2022-09-18T21:31:44.753Z,59.40
2022-09-18T21:34:26.883Z,59.70
2022-09-18T21:36:56.537Z,59.70
2022-09-18T21:39:23.617Z,59.80
2022-09-18T21:41:53.408Z,60.00
2022-09-18T21:44:27.708Z,60.10
2022-09-18T21:46:55.689Z,60.30
2022-09-18T21:49:22.960Z,60.60
2022-09-18T21:51:50.428Z,60.60
2022-09-18T21:54:20.120Z,61.00
2022-09-18T21:56:51.971Z,60.90
2022-09-18T21:59:19.838Z,61.00
2022-09-18T22:01:49.160Z,61.00
2022-09-18T22:04:17.550Z,61.30
2022-09-18T22:06:45.635Z,61.40
2022-09-18T22:09:15.423Z,61.20
2022-09-18T22:11:42.853Z,61.30
2022-09-18T22:14:12.254Z,61.40
2022-09-18T22:16:39.750Z,61.40
2022-09-18T22:19:10.434Z,61.50
2022-09-18T22:21:38.683Z,61.50
2022-09-18T22:24:10.312Z,61.70
2022-09-18T22:26:42.434Z,62.00
2022-09-18T22:29:13.693Z,62.50
2022-09-18T22:31:40.907Z,62.60
2022-09-18T22:34:08.025Z,62.50
2022-09-18T22:36:35.194Z,62.90
2022-09-18T22:39:02.174Z,62.90
2022-09-18T22:41:29.223Z,63.50
2022-09-18T22:43:56.873Z,63.60
2022-09-18T22:46:25.350Z,63.80
2022-09-18T22:48:52.444Z,64.20
2022-09-18T22:51:20.907Z,64.40
2022-09-18T22:53:49.454Z,64.50
2022-09-18T22:56:17.224Z,64.70
2022-09-18T22:58:44.854Z,65.00
2022-09-18T23:01:14.275Z,64.80
2022-09-18T23:03:41.654Z,65.10
2022-09-18T23:06:09.144Z,65.10
2022-09-18T23:08:36.704Z,65.20
2022-09-18T23:11:05.424Z,65.40
2022-09-18T23:13:32.914Z,65.60
2022-09-18T23:16:04.806Z,65.80
2022-09-18T23:18:31.954Z,65.90
2022-09-18T23:21:00.294Z,66.70
2022-09-18T23:23:28.994Z,65.80
2022-09-18T23:25:56.244Z,65.70
2022-09-18T23:28:23.303Z,65.80
2022-09-18T23:30:50.294Z,65.90
2022-09-18T23:33:17.383Z,66.00
2022-09-18T23:35:44.384Z,66.20
2022-09-18T23:38:11.514Z,66.20
2022-09-18T23:40:39.114Z,66.40
2022-09-18T23:43:06.424Z,66.40
2022-09-18T23:45:34.806Z,66.50
2022-09-18T23:48:01.953Z,66.70
2022-09-18T23:50:30.805Z,66.50
2022-09-18T23:52:58.675Z,66.50
2022-09-18T23:55:27.475Z,66.50
2022-09-18T23:57:54.606Z,66.60
